createdAt,value
2023-05-05T00:01:01.123Z,102071.25
2023-05-05T00:03:28.813Z,102067.00
2023-05-05T00:05:55.763Z,102070.53
2023-05-05T00:08:23.024Z,102063.59
2023-05-05T00:10:52.300Z,102069.56
2023-05-05T00:13:20.383Z,102067.72
2023-05-05T00:15:49.698Z,102070.28
2023-05-05T00:18:18.093Z,102058.97
2023-05-05T00:20:48.613Z,102050.28
2023-05-05T00:23:19.794Z,102052.00
2023-05-05T00:25:46.848Z,102061.63
2023-05-05T00:28:16.842Z,102053.00
2023-05-05T00:30:43.811Z,102058.16
2023-05-05T00:33:11.084Z,102062.44
2023-05-05T00:35:38.130Z,102054.63
2023-05-05T00:38:05.250Z,102058.09
2023-05-05T00:40:32.420Z,102045.88
2023-05-05T00:43:02.720Z,102048.41
2023-05-05T00:45:30.765Z,102044.84
2023-05-05T00:47:59.261Z,102051.66
2023-05-05T00:50:30.644Z,102060.19
2023-05-05T00:53:01.851Z,102049.59
2023-05-05T00:55:33.019Z,102046.84
2023-05-05T00:58:01.878Z,102053.69
2023-05-05T01:00:30.618Z,102042.38
2023-05-05T01:02:58.214Z,102031.84
2023-05-05T01:05:27.810Z,102046.69
2023-05-05T01:08:24.051Z,102042.25
2023-05-05T01:11:03.213Z,102037.00
2023-05-05T01:13:42.782Z,102032.66
2023-05-05T01:16:25.735Z,102034.47
2023-05-05T01:19:34.092Z,102038.81
2023-05-05T01:22:03.933Z,102031.72
2023-05-05T01:24:42.468Z,102028.25
2023-05-05T01:27:38.824Z,102031.72
2023-05-05T01:30:45.062Z,102030.84
2023-05-05T01:33:15.946Z,102022.16
2023-05-05T01:35:56.809Z,102029.06
2023-05-05T01:38:31.028Z,102024.72
2023-05-05T01:41:18.744Z,102017.75
2023-05-05T01:43:49.828Z,102015.97
2023-05-05T01:46:18.195Z,102021.97
2023-05-05T01:48:48.186Z,102028.78
2023-05-05T01:51:17.754Z,102027.91
2023-05-05T01:53:47.124Z,102025.31
2023-05-05T01:56:15.467Z,102034.91
2023-05-05T01:58:46.542Z,102022.75
2023-05-05T02:01:15.435Z,102028.84
2023-05-05T02:03:42.835Z,102023.63
2023-05-05T02:06:11.693Z,102031.47
2023-05-05T02:08:40.348Z,102034.03
2023-05-05T02:11:09.466Z,102029.47
2023-05-05T02:13:39.341Z,102044.09
2023-05-05T02:16:07.090Z,102045.91
2023-05-05T02:18:36.060Z,102045.09
2023-05-05T02:21:03.826Z,102046.91
2023-05-05T02:23:31.250Z,102040.88
2023-05-05T02:26:11.357Z,102039.13
2023-05-05T02:28:50.492Z,102035.88
2023-05-05T02:31:21.328Z,102027.22
2023-05-05T02:33:51.099Z,102030.78
2023-05-05T02:36:26.026Z,102025.56
2023-05-05T02:39:03.546Z,102032.53
2023-05-05T02:41:38.507Z,102030.75
2023-05-05T02:44:13.943Z,102028.94
2023-05-05T02:46:42.699Z,102024.66
2023-05-05T02:49:09.673Z,102028.09
2023-05-05T02:51:38.167Z,102029.72
2023-05-05T02:54:09.893Z,102030.47
2023-05-05T02:56:44.189Z,102033.00
2023-05-05T02:59:50.250Z,102027.78
2023-05-05T03:02:41.936Z,102026.06
2023-05-05T03:05:17.396Z,102017.41
2023-05-05T03:08:01.873Z,102017.41
2023-05-05T03:11:00.345Z,102037.63
2023-05-05T03:13:29.459Z,102033.28
2023-05-05T03:15:58.559Z,102032.41
2023-05-05T03:18:29.060Z,102035.03
2023-05-05T03:21:07.934Z,102035.91
2023-05-05T03:23:37.102Z,102037.63
2023-05-05T03:26:08.288Z,102037.69
2023-05-05T03:28:39.621Z,102036.81
2023-05-05T03:31:15.249Z,102037.63
2023-05-05T03:33:42.422Z,102035.06
2023-05-05T03:36:10.684Z,102026.22
2023-05-05T03:38:39.954Z,102035.06
2023-05-05T03:41:06.886Z,102036.88
2023-05-05T03:43:33.931Z,102031.66
2023-05-05T03:46:00.944Z,102033.41
2023-05-05T03:48:28.550Z,102037.78
2023-05-05T03:50:55.557Z,102035.19
2023-05-05T03:53:24.562Z,102036.09
2023-05-05T03:55:52.396Z,102042.81
2023-05-05T03:58:19.290Z,102029.88
2023-05-05T04:00:46.203Z,102024.66
2023-05-05T04:03:13.790Z,102029.81
2023-05-05T04:05:40.881Z,102029.72
2023-05-05T04:08:07.824Z,102027.03
2023-05-05T04:10:35.074Z,102018.38
2023-05-05T04:13:02.304Z,102024.50
2023-05-05T04:15:30.991Z,102021.88
2023-05-05T04:17:58.246Z,102026.22
2023-05-05T04:20:26.382Z,102030.44
2023-05-05T04:22:54.171Z,102012.97
2023-05-05T04:25:22.457Z,102021.78
2023-05-05T04:27:50.166Z,102033.94
2023-05-05T04:30:17.681Z,102020.91
2023-05-05T04:32:45.722Z,102041.97
2023-05-05T04:35:13.065Z,102031.63
2023-05-05T04:37:39.970Z,102036.06
2023-05-05T04:40:08.254Z,102036.81
2023-05-05T04:42:36.870Z,102051.69
2023-05-05T04:45:05.070Z,102061.13
2023-05-05T04:47:32.302Z,102062.94
2023-05-05T04:49:59.189Z,102066.41
2023-05-05T04:52:26.097Z,102064.66
2023-05-05T04:54:52.970Z,102074.19
2023-05-05T04:57:19.826Z,102072.50
2023-05-05T04:59:46.756Z,102060.31
2023-05-05T05:02:13.701Z,102073.53
2023-05-05T05:04:41.396Z,102067.53
2023-05-05T05:07:08.363Z,102072.84
2023-05-05T05:09:35.446Z,102072.81
2023-05-05T05:12:03.061Z,102067.72
2023-05-05T05:14:30.252Z,102067.78
2023-05-05T05:16:57.103Z,102063.56
2023-05-05T05:19:24.762Z,102071.44
2023-05-05T05:21:51.824Z,102072.47
2023-05-05T05:24:18.839Z,102071.72
2023-05-05T05:26:45.775Z,102072.66
2023-05-05T05:29:13.067Z,102068.28
2023-05-05T05:31:40.074Z,102062.25
2023-05-05T05:34:07.302Z,102071.03
2023-05-05T05:36:34.847Z,102091.94
2023-05-05T05:39:02.503Z,102084.88
2023-05-05T05:41:29.450Z,102085.03
2023-05-05T05:43:56.868Z,102078.03
2023-05-05T05:46:23.888Z,102079.00
2023-05-05T05:48:50.840Z,102090.44
2023-05-05T05:51:18.786Z,102080.19
2023-05-05T05:53:47.257Z,102090.81
2023-05-05T05:56:14.241Z,102076.03
2023-05-05T05:58:42.344Z,102086.53
2023-05-05T06:01:09.434Z,102098.88
2023-05-05T06:03:36.481Z,102095.44
2023-05-05T06:06:03.654Z,102113.78
2023-05-05T06:08:30.913Z,102101.59
2023-05-05T06:10:57.948Z,102096.28
2023-05-05T06:13:24.874Z,102095.41
2023-05-05T06:15:53.050Z,102089.13
2023-05-05T06:18:20.262Z,102103.09
2023-05-05T06:20:50.858Z,102095.13
2023-05-05T06:23:18.928Z,102087.19
2023-05-05T06:25:55.309Z,102108.00
2023-05-05T06:28:22.262Z,102106.38
2023-05-05T06:30:49.187Z,102117.63
2023-05-05T06:33:16.543Z,102101.97
2023-05-05T06:35:43.485Z,102103.72
2023-05-05T06:38:10.565Z,102103.72
2023-05-05T06:40:37.447Z,102101.16
2023-05-05T06:43:05.312Z,102098.59
2023-05-05T06:45:36.632Z,102114.25
2023-05-05T06:48:03.514Z,102112.56
2023-05-05T06:50:30.388Z,102115.25
2023-05-05T06:52:57.278Z,102117.03
2023-05-05T06:55:24.387Z,102119.81
2023-05-05T06:57:51.280Z,102112.13
2023-05-05T07:00:18.656Z,102114.00
2023-05-05T07:02:45.723Z,102121.97
2023-05-05T07:05:12.590Z,102123.00
2023-05-05T07:07:51.595Z,102127.50
2023-05-05T07:10:18.681Z,102114.59
2023-05-05T07:12:46.342Z,102103.41
2023-05-05T07:15:26.813Z,102107.97
2023-05-05T07:17:56.468Z,102099.22
2023-05-05T07:20:23.530Z,102094.91
2023-05-05T07:22:50.376Z,102103.56
2023-05-05T07:25:17.459Z,102106.06
2023-05-05T07:27:44.438Z,102109.50
2023-05-05T07:30:15.385Z,102100.81
2023-05-05T07:32:44.384Z,102113.91
2023-05-05T07:35:11.348Z,102114.06
2023-05-05T07:37:38.211Z,102123.00
2023-05-05T07:40:06.138Z,102119.72
2023-05-05T07:42:33.243Z,102118.03
2023-05-05T07:45:00.140Z,102118.16
2023-05-05T07:47:27.222Z,102131.38
2023-05-05T07:49:54.489Z,102141.03
2023-05-05T07:52:30.110Z,102131.50
2023-05-05T07:55:04.943Z,102138.59
2023-05-05T07:57:31.860Z,102144.91
2023-05-05T07:59:58.714Z,102131.06
2023-05-05T08:02:25.798Z,102114.56
2023-05-05T08:04:52.763Z,102125.03
2023-05-05T08:07:19.637Z,102130.22
2023-05-05T08:09:46.550Z,102142.38
2023-05-05T08:12:15.131Z,102134.50
2023-05-05T08:14:42.537Z,102132.84
2023-05-05T08:17:09.438Z,102149.50
2023-05-05T08:19:36.374Z,102142.63
2023-05-05T08:22:03.283Z,102134.91
2023-05-05T08:24:30.824Z,102136.69
2023-05-05T08:26:57.725Z,102128.00
2023-05-05T08:29:24.823Z,102124.63
2023-05-05T08:31:52.145Z,102117.72
2023-05-05T08:34:19.110Z,102120.44
2023-05-05T08:36:46.021Z,102117.06
2023-05-05T08:39:12.927Z,102111.84
2023-05-05T08:41:39.859Z,102104.88
2023-05-05T08:44:08.413Z,102094.38
2023-05-05T08:46:36.517Z,102110.25
2023-05-05T08:49:05.660Z,102098.00
2023-05-05T08:51:42.232Z,102108.50
2023-05-05T08:54:15.289Z,102114.66
2023-05-05T08:56:43.672Z,102114.75
2023-05-05T08:59:11.948Z,102106.06
2023-05-05T09:01:41.246Z,102115.75
2023-05-05T09:04:09.177Z,102105.41
2023-05-05T09:06:37.062Z,102113.47
2023-05-05T09:09:04.065Z,102121.53
2023-05-05T09:11:32.588Z,102125.09
2023-05-05T09:13:59.453Z,102125.13
2023-05-05T09:16:26.330Z,102121.63
2023-05-05T09:19:02.654Z,102125.19
2023-05-05T09:21:29.610Z,102125.25
2023-05-05T09:24:12.825Z,102127.00
2023-05-05T09:26:43.306Z,102138.38
2023-05-05T09:29:10.409Z,102122.69
2023-05-05T09:31:37.762Z,102123.53
2023-05-05T09:34:15.980Z,102138.34
2023-05-05T09:36:48.025Z,102149.69
2023-05-05T09:39:19.944Z,102133.13
2023-05-05T09:41:47.225Z,102141.88
2023-05-05T09:44:17.479Z,102135.81
2023-05-05T09:46:55.170Z,102140.25
2023-05-05T09:49:25.236Z,102149.94
2023-05-05T09:51:55.713Z,102131.59
2023-05-05T09:54:29.958Z,102135.13
2023-05-05T09:56:57.538Z,102135.06
2023-05-05T09:59:24.793Z,102133.38
2023-05-05T10:01:52.284Z,102123.81
2023-05-05T10:04:28.256Z,102131.75
2023-05-05T10:06:59.147Z,102131.00
2023-05-05T10:09:27.328Z,102129.31
2023-05-05T10:11:56.655Z,102136.25
2023-05-05T10:14:25.569Z,102126.66
2023-05-05T10:16:54.762Z,102128.34
2023-05-05T10:19:24.277Z,102112.63
2023-05-05T10:21:59.606Z,102117.00
2023-05-05T10:24:40.419Z,102110.84
2023-05-05T10:27:17.821Z,102102.97
2023-05-05T10:30:06.901Z,102099.47
2023-05-05T10:32:56.895Z,102102.19
2023-05-05T10:35:27.711Z,102104.03
2023-05-05T10:37:58.870Z,102089.25
2023-05-05T10:40:25.883Z,102102.34
2023-05-05T10:42:54.511Z,102112.88
2023-05-05T10:45:21.606Z,102093.53
2023-05-05T10:47:49.770Z,102089.22
2023-05-05T10:50:29.942Z,102087.53
2023-05-05T10:53:29.024Z,102084.09
2023-05-05T10:56:10.457Z,102087.59
2023-05-05T10:58:58.294Z,102082.38
2023-05-05T11:01:34.196Z,102078.06
2023-05-05T11:04:18.107Z,102078.09
2023-05-05T11:07:08.778Z,102072.00
2023-05-05T11:09:54.781Z,102060.63
2023-05-05T11:12:21.711Z,102065.94
2023-05-05T11:15:27.219Z,102052.81
2023-05-05T11:17:56.470Z,102056.34
2023-05-05T11:20:43.338Z,102063.38
2023-05-05T11:23:10.197Z,102065.97
2023-05-05T11:25:37.557Z,102052.84
2023-05-05T11:28:12.095Z,102061.59
2023-05-05T11:31:18.135Z,102058.94
2023-05-05T11:33:45.506Z,102068.63
2023-05-05T11:36:17.851Z,102053.72
2023-05-05T11:39:17.112Z,102045.88
2023-05-05T11:42:09.425Z,102041.50
2023-05-05T11:44:38.185Z,102031.88
2023-05-05T11:47:04.979Z,102043.28
2023-05-05T11:49:34.336Z,102038.91
2023-05-05T11:52:13.479Z,102038.88
2023-05-05T11:54:48.052Z,102040.66
2023-05-05T11:57:21.758Z,102038.00
2023-05-05T12:00:08.128Z,102026.63
2023-05-05T12:02:35.678Z,102043.28
2023-05-05T12:05:03.425Z,102037.16
2023-05-05T12:07:33.413Z,102050.28
2023-05-05T12:10:00.819Z,102024.88
2023-05-05T12:12:39.997Z,102039.78
2023-05-05T12:15:09.952Z,102030.09
2023-05-05T12:17:47.810Z,102024.88
2023-05-05T12:20:14.766Z,102016.97
2023-05-05T12:22:41.952Z,102023.09
2023-05-05T12:25:09.764Z,102020.44
2023-05-05T12:27:36.990Z,102024.81
2023-05-05T12:30:17.846Z,102005.50
2023-05-05T12:32:45.942Z,102003.75
2023-05-05T12:35:13.922Z,102005.50
2023-05-05T12:37:41.517Z,101998.50
2023-05-05T12:40:47.705Z,102003.81
2023-05-05T12:43:30.040Z,101996.78
2023-05-05T12:46:10.228Z,101984.53
2023-05-05T12:48:39.357Z,101997.66
2023-05-05T12:51:13.158Z,101987.16
2023-05-05T12:53:40.100Z,101992.41
2023-05-05T12:56:07.084Z,101973.09
2023-05-05T12:58:49.369Z,101989.78
2023-05-05T13:01:16.300Z,101975.75
2023-05-05T13:03:43.323Z,101995.91
2023-05-05T13:06:24.498Z,101992.41
2023-05-05T13:08:52.045Z,101987.16
2023-05-05T13:11:19.164Z,101999.44
2023-05-05T13:13:46.190Z,101984.53
2023-05-05T13:16:13.091Z,101974.00
2023-05-05T13:18:45.360Z,101992.44
2023-05-05T13:21:12.610Z,101971.38
2023-05-05T13:23:44.219Z,101979.28
2023-05-05T13:26:12.363Z,101977.50
2023-05-05T13:28:40.326Z,101962.63
2023-05-05T13:31:08.169Z,101973.13
2023-05-05T13:33:35.824Z,101963.50
2023-05-05T13:36:03.475Z,101972.28
2023-05-05T13:38:32.985Z,101967.84
2023-05-05T13:41:00.305Z,101959.09
2023-05-05T13:43:27.219Z,101950.31
2023-05-05T13:45:55.073Z,101955.56
2023-05-05T13:48:24.345Z,101964.31
2023-05-05T13:50:51.442Z,101953.84
2023-05-05T13:53:18.339Z,101946.84
2023-05-05T13:55:45.251Z,101941.56
2023-05-05T13:58:12.630Z,101931.97
2023-05-05T14:00:39.844Z,101931.94
2023-05-05T14:03:06.829Z,101930.19
2023-05-05T14:05:34.253Z,101931.06
2023-05-05T14:08:01.307Z,101921.44
2023-05-05T14:10:29.884Z,101928.41
2023-05-05T14:12:57.507Z,101921.38
2023-05-05T14:15:24.426Z,101929.28
2023-05-05T14:17:51.420Z,101917.00
2023-05-05T14:20:18.338Z,101921.31
2023-05-05T14:22:46.687Z,101919.56
2023-05-05T14:25:15.218Z,101926.53
2023-05-05T14:27:42.097Z,101923.06
2023-05-05T14:30:09.365Z,101923.06
2023-05-05T14:32:36.310Z,101934.44
2023-05-05T14:35:03.468Z,101926.53
2023-05-05T14:37:30.344Z,101922.19
2023-05-05T14:39:58.171Z,101925.69
2023-05-05T14:42:26.570Z,101923.94
2023-05-05T14:44:53.756Z,101931.84
2023-05-05T14:47:20.659Z,101914.31
2023-05-05T14:49:47.563Z,101927.47
2023-05-05T14:52:14.434Z,101935.38
2023-05-05T14:54:41.344Z,101925.72
2023-05-05T14:57:08.262Z,101927.44
2023-05-05T14:59:35.171Z,101930.06
2023-05-05T15:02:02.152Z,101917.78
2023-05-05T15:04:29.185Z,101927.44
2023-05-05T15:06:56.374Z,101923.03
2023-05-05T15:09:23.267Z,101930.03
2023-05-05T15:11:50.151Z,101924.75
2023-05-05T15:14:17.048Z,101923.81
2023-05-05T15:16:43.941Z,101926.38
2023-05-05T15:19:10.906Z,101920.25
2023-05-05T15:21:37.797Z,101926.31
2023-05-05T15:24:05.108Z,101907.00
2023-05-05T15:26:32.108Z,101914.88
2023-05-05T15:28:59.005Z,101908.75
2023-05-05T15:31:25.928Z,101906.09
2023-05-05T15:33:52.854Z,101897.34
2023-05-05T15:36:22.505Z,101895.56
2023-05-05T15:38:49.606Z,101908.66
2023-05-05T15:41:16.510Z,101896.38
2023-05-05T15:43:43.418Z,101901.63
2023-05-05T15:46:10.314Z,101901.63
2023-05-05T15:48:37.256Z,101895.44
2023-05-05T15:51:04.230Z,101885.81
2023-05-05T15:53:31.214Z,101897.13
2023-05-05T15:55:58.245Z,101895.41
2023-05-05T15:58:25.148Z,101894.50
2023-05-05T16:00:52.069Z,101891.84
2023-05-05T16:03:19.170Z,101895.34
2023-05-05T16:05:47.161Z,101895.41
2023-05-05T16:08:14.024Z,101896.28
2023-05-05T16:10:41.034Z,101898.00
2023-05-05T16:13:08.026Z,101896.28
2023-05-05T16:15:35.853Z,101894.56
2023-05-05T16:18:02.774Z,101888.47
2023-05-05T16:20:29.767Z,101909.41
2023-05-05T16:22:56.945Z,101890.16
2023-05-05T16:25:23.893Z,101894.44
2023-05-05T16:27:50.762Z,101900.50
2023-05-05T16:30:17.649Z,101904.00
2023-05-05T16:32:44.560Z,101896.06
2023-05-05T16:35:12.149Z,101899.59
2023-05-05T16:37:39.031Z,101903.06
2023-05-05T16:40:06.747Z,101902.13
2023-05-05T16:42:33.715Z,101906.44
2023-05-05T16:45:00.681Z,101909.84
2023-05-05T16:47:27.748Z,101889.59
2023-05-05T16:49:54.702Z,101886.00
2023-05-05T16:52:21.565Z,101883.38
2023-05-05T16:54:55.195Z,101882.53
2023-05-05T16:57:22.898Z,101892.19
2023-05-05T16:59:50.293Z,101882.53
2023-05-05T17:02:17.230Z,101887.72
2023-05-05T17:04:44.150Z,101892.00
2023-05-05T17:07:11.055Z,101897.97
2023-05-05T17:09:37.980Z,101901.38
2023-05-05T17:12:05.735Z,101876.81
2023-05-05T17:14:33.580Z,101883.63
2023-05-05T17:17:00.479Z,101881.69
2023-05-05T17:19:27.360Z,101873.66
2023-05-05T17:21:55.121Z,101872.63
2023-05-05T17:24:22.623Z,101869.97
2023-05-05T17:26:50.112Z,101879.47
2023-05-05T17:29:20.146Z,101871.56
2023-05-05T17:31:47.159Z,101873.19
2023-05-05T17:34:14.057Z,101868.81
2023-05-05T17:36:41.018Z,101866.13
2023-05-05T17:39:08.052Z,101866.94
2023-05-05T17:41:35.074Z,101865.13
2023-05-05T17:44:01.992Z,101860.75
2023-05-05T17:46:28.987Z,101860.63
2023-05-05T17:48:56.184Z,101860.50
2023-05-05T17:51:23.138Z,101854.25
2023-05-05T17:53:50.000Z,101857.69
2023-05-05T17:56:17.153Z,101847.09
2023-05-05T17:58:44.019Z,101860.22
2023-05-05T18:01:23.747Z,101868.06
2023-05-05T18:03:50.767Z,101867.19
2023-05-05T18:06:17.778Z,101864.63
2023-05-05T18:08:45.014Z,101864.53
2023-05-05T18:11:11.943Z,101874.00
2023-05-05T18:13:39.436Z,101867.69
2023-05-05T18:16:06.869Z,101867.69
2023-05-05T18:18:34.038Z,101876.38
2023-05-05T18:21:01.207Z,101873.72
2023-05-05T18:23:28.102Z,101882.47
2023-05-05T18:25:54.984Z,101876.34
2023-05-05T18:28:21.901Z,101861.50
2023-05-05T18:30:48.810Z,101870.16
2023-05-05T18:33:15.930Z,101872.69
2023-05-05T18:35:42.842Z,101872.56
2023-05-05T18:38:09.762Z,101871.53
2023-05-05T18:40:36.662Z,101867.09
2023-05-05T18:43:03.668Z,101875.72
2023-05-05T18:45:30.711Z,101873.09
2023-05-05T18:47:57.782Z,101871.22
2023-05-05T18:50:24.868Z,101864.28
2023-05-05T18:52:51.736Z,101865.19
2023-05-05T18:55:18.819Z,101867.78
2023-05-05T18:57:45.772Z,101858.94
2023-05-05T19:00:13.023Z,101864.16
2023-05-05T19:02:39.943Z,101858.84
2023-05-05T19:05:10.255Z,101859.63
2023-05-05T19:07:37.553Z,101873.63
2023-05-05T19:10:05.281Z,101859.72
2023-05-05T19:12:32.415Z,101857.81
2023-05-05T19:14:59.349Z,101858.78
2023-05-05T19:17:26.429Z,101862.25
2023-05-05T19:19:53.334Z,101858.69
2023-05-05T19:22:22.915Z,101859.47
2023-05-05T19:24:49.776Z,101860.31
2023-05-05T19:27:17.218Z,101862.94
2023-05-05T19:29:45.104Z,101852.63
2023-05-05T19:32:12.037Z,101840.41
2023-05-05T19:34:38.899Z,101850.13
2023-05-05T19:37:05.743Z,101840.59
2023-05-05T19:39:32.727Z,101838.81
2023-05-05T19:41:59.607Z,101846.66
2023-05-05T19:44:26.604Z,101837.97
2023-05-05T19:46:53.582Z,101831.88
2023-05-05T19:49:20.492Z,101842.31
2023-05-05T19:51:49.765Z,101843.25
2023-05-05T19:54:16.695Z,101834.41
2023-05-05T19:56:43.568Z,101853.00
2023-05-05T19:59:10.627Z,101853.88
2023-05-05T20:01:37.712Z,101847.81
2023-05-05T20:04:04.795Z,101851.31
2023-05-05T20:06:32.834Z,101846.97
2023-05-05T20:09:00.369Z,101857.53
2023-05-05T20:11:27.769Z,101860.28
2023-05-05T20:13:54.668Z,101867.28
2023-05-05T20:16:22.004Z,101869.94
2023-05-05T20:18:50.299Z,101874.34
2023-05-05T20:21:18.078Z,101870.84
2023-05-05T20:23:46.147Z,101879.56
2023-05-05T20:26:13.543Z,101884.78
2023-05-05T20:28:44.236Z,101883.84
2023-05-05T20:31:14.133Z,101877.78
2023-05-05T20:33:41.066Z,101862.94
2023-05-05T20:36:08.085Z,101863.91
2023-05-05T20:38:35.046Z,101857.81
2023-05-05T20:41:02.089Z,101856.06
2023-05-05T20:43:29.058Z,101848.09
2023-05-05T20:45:55.982Z,101843.72
2023-05-05T20:48:22.904Z,101846.28
2023-05-05T20:50:51.126Z,101833.13
2023-05-05T20:53:19.129Z,101841.94
2023-05-05T20:55:46.153Z,101841.94
2023-05-05T20:58:13.040Z,101850.66
2023-05-05T21:00:40.091Z,101855.06
2023-05-05T21:03:07.072Z,101855.94
2023-05-05T21:05:34.098Z,101868.16
2023-05-05T21:08:01.446Z,101866.47
2023-05-05T21:10:33.007Z,101867.41
2023-05-05T21:13:01.906Z,101867.38
2023-05-05T21:15:29.048Z,101854.25
2023-05-05T21:17:57.246Z,101862.19
2023-05-05T21:20:24.431Z,101853.59
2023-05-05T21:22:51.416Z,101856.25
2023-05-05T21:25:21.110Z,101860.63
2023-05-05T21:27:48.769Z,101850.19
2023-05-05T21:30:17.155Z,101853.72
2023-05-05T21:32:44.593Z,101844.16
2023-05-05T21:35:11.624Z,101844.06
2023-05-05T21:37:39.267Z,101834.50
2023-05-05T21:40:10.854Z,101837.06
2023-05-05T21:42:38.065Z,101824.66
2023-05-05T21:45:05.364Z,101826.41
2023-05-05T21:47:32.322Z,101816.78
2023-05-05T21:49:59.271Z,101820.31
2023-05-05T21:52:26.159Z,101815.94
2023-05-05T21:54:53.073Z,101809.78
2023-05-05T21:57:20.092Z,101808.00
2023-05-05T21:59:47.007Z,101809.75
2023-05-05T22:02:13.931Z,101813.22
2023-05-05T22:04:40.812Z,101809.75
2023-05-05T22:07:07.716Z,101804.47
2023-05-05T22:09:34.602Z,101799.25
2023-05-05T22:12:02.576Z,101799.22
2023-05-05T22:14:29.538Z,101801.81
2023-05-05T22:16:56.435Z,101794.88
2023-05-05T22:19:23.347Z,101805.34
2023-05-05T22:21:50.216Z,101800.13
2023-05-05T22:24:17.109Z,101804.56
2023-05-05T22:26:44.014Z,101806.34
2023-05-05T22:29:11.288Z,101809.88
2023-05-05T22:31:38.493Z,101822.94
2023-05-05T22:34:05.548Z,101816.88
2023-05-05T22:36:32.436Z,101826.53
2023-05-05T22:38:59.330Z,101825.72
2023-05-05T22:41:26.277Z,101817.91
2023-05-05T22:43:53.204Z,101823.19
2023-05-05T22:46:20.247Z,101813.66
2023-05-05T22:48:47.179Z,101815.44
2023-05-05T22:51:14.207Z,101818.13
2023-05-05T22:53:41.144Z,101812.94
2023-05-05T22:56:08.067Z,101811.22
2023-05-05T22:58:34.937Z,101809.50
2023-05-05T23:01:01.905Z,101800.78
2023-05-05T23:03:28.916Z,101800.81
2023-05-05T23:05:55.782Z,101805.16
2023-05-05T23:08:23.998Z,101795.56
2023-05-05T23:10:50.876Z,101792.94
2023-05-05T23:13:17.884Z,101785.03
2023-05-05T23:15:44.819Z,101790.28
2023-05-05T23:18:11.714Z,101788.47
2023-05-05T23:20:38.586Z,101785.78
2023-05-05T23:23:05.478Z,101798.88
2023-05-05T23:25:32.407Z,101792.78
2023-05-05T23:27:59.308Z,101792.69
2023-05-05T23:30:26.227Z,101797.94
2023-05-05T23:32:53.181Z,101800.56
2023-05-05T23:35:20.210Z,101792.72
2023-05-05T23:37:47.125Z,101796.22
2023-05-05T23:40:14.018Z,101784.88
2023-05-05T23:42:40.902Z,101789.22
2023-05-05T23:45:09.107Z,101790.09
2023-05-05T23:47:36.226Z,101788.22
2023-05-05T23:50:03.820Z,101797.91
2023-05-05T23:52:30.718Z,101797.91
2023-05-05T23:54:57.614Z,101803.19
2023-05-05T23:57:24.474Z,101801.47
2023-05-05T23:59:51.358Z,101798.88
